Hundvaag 1 weather for Aug 2011
Updated 21.08.2011 20:22:23 Month no. 290
Obs.
Da.
Temp. Dew Point Precip. Wind
Speed
Wind gusts Cloud cover Press. Humidity Wind dir. Sunny OPT
01.08.2011 13,7 10,8 0,0 0,0 0,0 0 1016,6 83,0   1 67,5 %
02.08.2011 16,4 13,4 0,0 7,4 11,3 0 1019,6 83,0 202,5   65,0 %
03.08.2011 17,6 15,8 0,0 3,9 5,5 9 1019,6 89,0 90,0 1 92,5 %
04.08.2011 18,7 11,6 0,0 7,1 10,1 5 1015,2 63,0 180,0 1 82,5 %
05.08.2011 17,4 14,8 0,0 2,9 4,7 0 1004,7 85,0 112,5   70,0 %
06.08.2011 14,8 12,5 0,0 0,0 0,0 0 1010,2 86,0   1 67,5 %
07.08.2011 13,9 11,2 0,0 1,6 1,6 0 995,9 84,0 0,0 1 67,5 %
08.08.2011 12,5 10,4 0,0 20,9 20,9 4 995,6 87,0 180,0 1 65,0 %
09.08.2011 15,7 13,0 0,0 11,3 12,9 0 1002,7 84,0 292,5 1 62,5 %
10.08.2011 10,4 7,3 0,0 3,2 3,2 4 1015,6 81,0 337,5 1 75,0 %
11.08.2011 14,6 11,0 0,0 4,8 4,8 9 1010,5 79,0 22,5 1 87,5 %
12.08.2011 17,4 12,5 0,0 0,0 0,0 10 1015,2 73,0   1 95,0 %
13.08.2011 15,6 8,5 0,0 8,0 9,7 4 1013,5 63,0 135,0 1 75,0 %
14.08.2011 17,0 12,6 0,0 9,3 15,9 4 1005,8 75,0 180,0 1 75,0 %
15.08.2011 14,7 13,4 1,5 0,0 6,3 4 1005,4 92,0   1 77,5 %
16.08.2011 13,9 11,4 0,0 4,8 11,4 4 1012,2 85,0 292,5 1 75,0 %
17.08.2011 13,5 11,6 0,0 6,0 10,0 4 1009,5 88,0 45,0 1 75,0 %
18.08.2011 13,6 11,2 0,0 4,5 9,3 4 1015,2 85,0 0,0 1 75,0 %
19.08.2011 13,2 11,1 0,0 3,5 7,1 4 1008,5 87,0 0,0 1 77,5 %
20.08.2011 13,3 9,9 0,0 4,8 3,2 1 1014,9 80,0 67,5 1 67,5 %
21.08.2011 13,6 10,8 0,0 14,5 14,5 1 1015,9 83,0 135,0   62,5 %
22.08.2011 13,2 11,1 0,0 1,6 1,6 4 1015,2 87,0 157,5 1 77,5 %
23.08.2011 14,2 11,9 0,0 0,0 0,0 9 1023,7 86,0   1 90,0 %
24.08.2011 15,9 10,7 0,0 0,0 3,2 0 1015,2 71,0     70,0 %
25.08.2011 13,8 11,5 0,0 0,0 0,0 9 1016,6 86,0   1 90,0 %
26.08.2011 15,3 11,9 0,0 0,0 0,0 9 1014,2 80,0   1 92,5 %
27.08.2011 18,7 15,0 0,0 11,3 11,3 0 1003,0 79,0 135,0 1 65,0 %
28.08.2011 12,1 9,5 0,0 8,0 8,0 5 1003,4 84,0 135,0 1 72,5 %
29.08.2011 14,3 9,7 0,0 4,8 4,8 2 993,9 74,0 315,0 1 70,0 %
30.08.2011 12,1 9,1 0,0 12,9 9,7 0 1006,1 82,0 292,5 1 57,5 %
31.08.2011 13,6 11,8 0,0 0,0 1,6 2 1008,5 89,0     72,5 %
Avrg/Sum 14,7 11,5 1,5 5,1 6,5 3,6 1010,4 81,7 150,3 26 74,7 %